createdAt,value
2017-08-10T00:00:46.714Z,0
2017-08-10T00:01:46.683Z,0
2017-08-10T00:02:46.663Z,0
2017-08-10T00:03:46.648Z,0
2017-08-10T00:04:46.631Z,0
2017-08-10T00:05:46.632Z,0
2017-08-10T00:06:46.587Z,0
2017-08-10T00:07:46.272Z,0
2017-08-10T00:08:46.788Z,0
2017-08-10T00:09:46.529Z,0
2017-08-10T00:10:46.521Z,0
2017-08-10T00:11:46.174Z,0
2017-08-10T00:12:46.451Z,0
2017-08-10T00:13:46.638Z,0
2017-08-10T00:14:46.113Z,0
2017-08-10T00:15:46.410Z,0
2017-08-10T00:16:46.634Z,0
2017-08-10T00:17:46.352Z,0
2017-08-10T00:18:46.332Z,0
2017-08-10T00:19:46.314Z,0
2017-08-10T00:20:46.293Z,0
2017-08-10T00:21:46.262Z,0
2017-08-10T00:22:45.661Z,0
2017-08-10T00:23:46.526Z,0
2017-08-10T00:24:46.208Z,0
2017-08-10T00:25:46.186Z,0
2017-08-10T00:26:46.176Z,0
2017-08-10T00:27:45.840Z,0
2017-08-10T00:28:46.114Z,0
2017-08-10T00:29:46.100Z,0
2017-08-10T00:30:46.077Z,0
2017-08-10T00:31:45.766Z,0
2017-08-10T00:32:46.085Z,0
2017-08-10T00:33:46.064Z,0
2017-08-10T00:34:46.022Z,0
2017-08-10T00:35:45.990Z,0
2017-08-10T00:36:45.956Z,0
2017-08-10T00:37:45.935Z,0
2017-08-10T00:38:45.922Z,0
2017-08-10T00:39:45.881Z,0
2017-08-10T00:40:45.871Z,0
2017-08-10T00:41:45.554Z,0
2017-08-10T00:42:45.828Z,0
2017-08-10T00:43:45.812Z,0
2017-08-10T00:44:45.786Z,0
2017-08-10T00:45:45.811Z,0
2017-08-10T00:46:45.511Z,0
2017-08-10T00:47:45.474Z,0
2017-08-10T00:48:45.403Z,0
2017-08-10T00:49:45.704Z,0
2017-08-10T00:50:45.662Z,0
2017-08-10T00:51:45.662Z,0
2017-08-10T00:52:45.073Z,0
2017-08-10T00:53:45.602Z,0
2017-08-10T00:54:45.576Z,0
2017-08-10T00:55:45.555Z,0
2017-08-10T00:56:45.532Z,0
2017-08-10T00:57:45.613Z,0
2017-08-10T00:58:45.491Z,0
2017-08-10T00:59:45.222Z,0
2017-08-10T01:00:45.458Z,0
2017-08-10T01:01:45.430Z,0
2017-08-10T01:02:45.412Z,0
2017-08-10T01:03:45.400Z,0
2017-08-10T01:04:45.374Z,0
2017-08-10T01:05:45.070Z,0
2017-08-10T01:06:45.317Z,0
2017-08-10T01:07:45.306Z,0
2017-08-10T01:08:45.275Z,0
2017-08-10T01:09:45.263Z,0
2017-08-10T01:10:45.241Z,0
2017-08-10T01:11:45.279Z,0
2017-08-10T01:12:45.212Z,0
2017-08-10T01:13:45.201Z,0
2017-08-10T01:14:45.155Z,0
2017-08-10T01:15:44.831Z,0
2017-08-10T01:16:45.120Z,0
2017-08-10T01:17:45.090Z,0
2017-08-10T01:18:45.075Z,0
2017-08-10T01:19:45.040Z,0
2017-08-10T01:20:45.082Z,0
2017-08-10T01:21:45.019Z,0
2017-08-10T01:22:45.008Z,0
2017-08-10T01:23:44.961Z,0
2017-08-10T01:24:44.943Z,0
2017-08-10T01:25:44.936Z,0
2017-08-10T01:26:44.903Z,0
2017-08-10T01:27:44.880Z,0
2017-08-10T01:28:44.553Z,0
2017-08-10T01:29:44.874Z,0
2017-08-10T01:30:44.514Z,0
2017-08-10T01:31:44.796Z,0
2017-08-10T01:32:44.468Z,0
2017-08-10T01:33:44.757Z,0
2017-08-10T01:34:44.736Z,0
2017-08-10T01:35:44.708Z,0
2017-08-10T01:36:44.709Z,0
2017-08-10T01:37:44.671Z,0
2017-08-10T01:38:44.650Z,0
2017-08-10T01:39:44.627Z,0
2017-08-10T01:40:44.613Z,0
2017-08-10T01:41:44.289Z,0
2017-08-10T01:42:44.561Z,0
2017-08-10T01:43:44.544Z,0
2017-08-10T01:44:44.533Z,0
2017-08-10T01:45:44.500Z,0
2017-08-10T01:46:44.485Z,0
2017-08-10T01:47:44.470Z,0
2017-08-10T01:48:44.441Z,0
2017-08-10T01:49:44.431Z,0
2017-08-10T01:50:44.396Z,0
2017-08-10T01:51:44.077Z,0
2017-08-10T01:52:44.345Z,0
2017-08-10T01:53:44.331Z,0
2017-08-10T01:54:44.022Z,0
2017-08-10T01:55:44.276Z,0
2017-08-10T01:56:44.267Z,0
2017-08-10T01:57:44.243Z,0
2017-08-10T01:58:44.276Z,0
2017-08-10T01:59:44.205Z,0
2017-08-10T02:00:44.187Z,0
2017-08-10T02:01:43.864Z,0
2017-08-10T02:02:44.189Z,0
2017-08-10T02:03:43.816Z,0
2017-08-10T02:04:43.494Z,0
2017-08-10T02:05:43.773Z,0
2017-08-10T02:06:44.064Z,0
2017-08-10T02:07:44.038Z,0
2017-08-10T02:08:43.706Z,0
2017-08-10T02:09:43.985Z,0
2017-08-10T02:10:43.677Z,0
2017-08-10T02:11:43.649Z,0
2017-08-10T02:12:43.933Z,0
2017-08-10T02:13:43.897Z,0
2017-08-10T02:14:43.877Z,0
2017-08-10T02:15:43.920Z,0
2017-08-10T02:16:43.847Z,0
2017-08-10T02:17:43.815Z,0
2017-08-10T02:18:43.816Z,0
2017-08-10T02:19:43.779Z,0
2017-08-10T02:20:43.759Z,0
2017-08-10T02:21:43.736Z,0
2017-08-10T02:22:43.416Z,0
2017-08-10T02:23:43.148Z,0
2017-08-10T02:24:43.670Z,0
2017-08-10T02:25:43.348Z,0
2017-08-10T02:26:43.624Z,0
2017-08-10T02:27:43.313Z,0
2017-08-10T02:28:43.588Z,0
2017-08-10T02:29:43.260Z,0
2017-08-10T02:30:43.543Z,0
2017-08-10T02:31:43.228Z,0
2017-08-10T02:32:43.515Z,0
2017-08-10T02:33:43.181Z,0
2017-08-10T02:34:43.454Z,0
2017-08-10T02:35:43.137Z,0
2017-08-10T02:36:43.142Z,0
2017-08-10T02:37:43.093Z,0
2017-08-10T02:38:43.624Z,0
2017-08-10T02:39:43.372Z,0
2017-08-10T02:40:43.043Z,0
2017-08-10T02:41:43.313Z,0
2017-08-10T02:42:43.295Z,0
2017-08-10T02:43:43.268Z,0
2017-08-10T02:44:43.256Z,0
2017-08-10T02:45:43.227Z,0
2017-08-10T02:46:42.912Z,0
2017-08-10T02:47:43.187Z,0
2017-08-10T02:48:43.172Z,0
2017-08-10T02:49:43.136Z,0
2017-08-10T02:50:43.178Z,0
2017-08-10T02:51:43.108Z,0
2017-08-10T02:52:43.091Z,0
2017-08-10T02:53:43.071Z,0
2017-08-10T02:54:42.786Z,0
2017-08-10T02:55:43.065Z,0
2017-08-10T02:56:42.988Z,0
2017-08-10T02:57:42.972Z,0
2017-08-10T02:58:42.951Z,0
2017-08-10T02:59:42.642Z,0
2017-08-10T03:00:42.913Z,0
2017-08-10T03:01:42.582Z,0
2017-08-10T03:02:42.872Z,0
2017-08-10T03:03:42.837Z,0
2017-08-10T03:04:42.824Z,0
2017-08-10T03:05:42.508Z,0
2017-08-10T03:06:42.779Z,0
2017-08-10T03:07:42.766Z,0
2017-08-10T03:08:42.739Z,0
2017-08-10T03:09:42.718Z,0
2017-08-10T03:10:42.697Z,0
2017-08-10T03:11:42.719Z,0
2017-08-10T03:12:42.656Z,0
2017-08-10T03:13:42.632Z,0
2017-08-10T03:14:42.612Z,0
2017-08-10T03:15:42.602Z,0
2017-08-10T03:16:42.569Z,0
2017-08-10T03:17:42.548Z,0
2017-08-10T03:18:42.539Z,0
2017-08-10T03:19:42.538Z,0
2017-08-10T03:20:42.180Z,0
2017-08-10T03:21:42.454Z,0
2017-08-10T03:22:42.451Z,0
2017-08-10T03:23:42.112Z,0
2017-08-10T03:24:42.457Z,0
2017-08-10T03:25:42.374Z,0
2017-08-10T03:26:42.351Z,0
2017-08-10T03:27:42.330Z,0
2017-08-10T03:28:42.324Z,0
2017-08-10T03:29:42.293Z,0
2017-08-10T03:30:42.281Z,0
2017-08-10T03:31:42.250Z,0
2017-08-10T03:32:41.969Z,0
2017-08-10T03:33:42.208Z,0
2017-08-10T03:34:42.194Z,0
2017-08-10T03:35:41.855Z,0
2017-08-10T03:36:42.139Z,0
2017-08-10T03:37:42.127Z,0
2017-08-10T03:38:42.099Z,0
2017-08-10T03:39:42.075Z,0
2017-08-10T03:40:42.064Z,0
2017-08-10T03:41:42.040Z,0
2017-08-10T03:42:42.023Z,0
2017-08-10T03:43:41.988Z,0
2017-08-10T03:44:42.248Z,0
2017-08-10T03:45:41.948Z,0
2017-08-10T03:46:41.925Z,0
2017-08-10T03:47:41.605Z,0
2017-08-10T03:48:41.882Z,0
2017-08-10T03:49:41.867Z,0
2017-08-10T03:50:41.851Z,0
2017-08-10T03:51:41.836Z,0
2017-08-10T03:52:41.797Z,0
2017-08-10T03:53:41.476Z,0
2017-08-10T03:54:41.771Z,0
2017-08-10T03:55:41.437Z,0
2017-08-10T03:56:41.716Z,0
2017-08-10T03:57:41.695Z,0
2017-08-10T03:58:41.685Z,0
2017-08-10T03:59:41.651Z,0
2017-08-10T04:00:41.632Z,0
2017-08-10T04:01:41.643Z,0
2017-08-10T04:02:41.835Z,0
2017-08-10T04:03:41.632Z,0
2017-08-10T04:04:41.541Z,0
2017-08-10T04:05:41.540Z,0
2017-08-10T04:06:41.220Z,0
2017-08-10T04:07:41.481Z,5
2017-08-10T04:08:41.460Z,5
2017-08-10T04:09:41.440Z,5
2017-08-10T04:10:41.417Z,5
2017-08-10T04:11:41.411Z,5
2017-08-10T04:12:41.087Z,5
2017-08-10T04:13:41.358Z,5
2017-08-10T04:14:41.090Z,5
2017-08-10T04:15:41.005Z,5
2017-08-10T04:16:41.322Z,5
2017-08-10T04:17:40.977Z,5
2017-08-10T04:18:41.250Z,10
2017-08-10T04:19:41.224Z,10
2017-08-10T04:20:41.209Z,10
2017-08-10T04:21:41.193Z,10
2017-08-10T04:22:41.169Z,10
2017-08-10T04:23:41.157Z,10
2017-08-10T04:24:41.126Z,10
2017-08-10T04:25:40.813Z,10
2017-08-10T04:26:41.102Z,10
2017-08-10T04:27:41.059Z,10
2017-08-10T04:28:41.043Z,15
2017-08-10T04:29:41.029Z,15
2017-08-10T04:30:40.704Z,15
2017-08-10T04:31:40.981Z,20
2017-08-10T04:32:40.953Z,20
2017-08-10T04:33:40.634Z,20
2017-08-10T04:34:40.913Z,20
2017-08-10T04:35:40.917Z,20
2017-08-10T04:36:40.874Z,20
2017-08-10T04:37:40.868Z,20
2017-08-10T04:38:40.535Z,20
2017-08-10T04:39:40.818Z,20
2017-08-10T04:40:40.789Z,20
2017-08-10T04:41:40.769Z,20
2017-08-10T04:42:40.760Z,25
2017-08-10T04:43:40.431Z,25
2017-08-10T04:44:40.696Z,25
2017-08-10T04:45:40.733Z,25
2017-08-10T04:46:40.664Z,25
2017-08-10T04:47:40.342Z,25
2017-08-10T04:48:40.622Z,25
2017-08-10T04:49:40.610Z,25
2017-08-10T04:50:40.639Z,25
2017-08-10T04:51:40.605Z,25
2017-08-10T04:52:40.232Z,30
2017-08-10T04:53:40.572Z,30
2017-08-10T04:54:40.490Z,30
2017-08-10T04:55:40.472Z,35
2017-08-10T04:56:40.455Z,35
2017-08-10T04:57:40.448Z,35
2017-08-10T04:58:40.400Z,40
2017-08-10T04:59:40.380Z,40
2017-08-10T05:00:40.377Z,45
2017-08-10T05:01:40.363Z,45
2017-08-10T05:02:40.322Z,50
2017-08-10T05:03:40.303Z,55
2017-08-10T05:04:40.305Z,55
2017-08-10T05:05:40.280Z,55
2017-08-10T05:06:40.246Z,55
2017-08-10T05:07:40.216Z,55
2017-08-10T05:08:40.199Z,55
2017-08-10T05:09:40.229Z,55
2017-08-10T05:10:40.154Z,50
2017-08-10T05:11:40.139Z,50
2017-08-10T05:12:39.814Z,50
2017-08-10T05:13:39.794Z,50
2017-08-10T05:14:40.073Z,50
2017-08-10T05:15:40.048Z,55
2017-08-10T05:16:40.026Z,60
2017-08-10T05:17:40.002Z,60
2017-08-10T05:18:40.021Z,65
2017-08-10T05:19:39.666Z,65
2017-08-10T05:20:39.957Z,65
2017-08-10T05:21:39.928Z,70
2017-08-10T05:22:39.912Z,70
2017-08-10T05:23:39.889Z,75
2017-08-10T05:24:39.861Z,75
2017-08-10T05:25:39.550Z,80
2017-08-10T05:26:39.828Z,85
2017-08-10T05:27:39.798Z,90
2017-08-10T05:28:39.798Z,95
2017-08-10T05:29:39.767Z,105
2017-08-10T05:30:39.746Z,110
2017-08-10T05:31:39.741Z,115
2017-08-10T05:32:39.696Z,120
2017-08-10T05:33:39.677Z,125
2017-08-10T05:34:39.400Z,125
2017-08-10T05:35:39.338Z,130
2017-08-10T05:36:39.318Z,130
2017-08-10T05:37:39.595Z,135
2017-08-10T05:38:39.565Z,135
2017-08-10T05:39:39.617Z,135
2017-08-10T05:40:39.530Z,140
2017-08-10T05:41:39.511Z,135
2017-08-10T05:42:39.494Z,135
2017-08-10T05:43:39.476Z,140
2017-08-10T05:44:39.157Z,140
2017-08-10T05:45:39.435Z,135
2017-08-10T05:46:39.406Z,135
2017-08-10T05:47:39.388Z,130
2017-08-10T05:48:39.070Z,130
2017-08-10T05:49:39.345Z,135
2017-08-10T05:50:39.324Z,135
2017-08-10T05:51:39.301Z,140
2017-08-10T05:52:38.994Z,145
2017-08-10T05:53:39.271Z,150
2017-08-10T05:54:39.273Z,150
2017-08-10T05:55:39.223Z,150
2017-08-10T05:56:39.207Z,145
2017-08-10T05:57:38.924Z,145
2017-08-10T05:58:38.862Z,145
2017-08-10T05:59:39.185Z,150
2017-08-10T06:00:39.112Z,150
2017-08-10T06:01:39.143Z,160
2017-08-10T06:02:38.472Z,170
2017-08-10T06:03:39.060Z,185
2017-08-10T06:04:38.790Z,205
2017-08-10T06:05:39.023Z,215
2017-08-10T06:06:38.995Z,225
2017-08-10T06:07:38.986Z,230
2017-08-10T06:08:38.949Z,240
2017-08-10T06:09:38.932Z,245
2017-08-10T06:10:38.912Z,255
2017-08-10T06:11:38.902Z,265
2017-08-10T06:12:38.871Z,275
2017-08-10T06:13:38.848Z,280
2017-08-10T06:14:38.835Z,300
2017-08-10T06:15:38.815Z,260
2017-08-10T06:16:38.854Z,250
2017-08-10T06:17:38.783Z,245
2017-08-10T06:18:39.010Z,245
2017-08-10T06:19:38.746Z,265
2017-08-10T06:20:39.869Z,280
2017-08-10T06:21:38.695Z,285
2017-08-10T06:22:39.295Z,275
2017-08-10T06:23:38.848Z,265
2017-08-10T06:24:39.528Z,260
2017-08-10T06:25:39.207Z,260
2017-08-10T06:26:39.887Z,250
2017-08-10T06:27:38.464Z,240
2017-08-10T06:28:38.900Z,225
2017-08-10T06:29:38.228Z,215
2017-08-10T06:30:38.569Z,210
2017-08-10T06:31:38.498Z,205
2017-08-10T06:32:38.473Z,195
2017-08-10T06:33:38.450Z,180
2017-08-10T06:34:38.440Z,170
2017-08-10T06:35:38.463Z,165
2017-08-10T06:36:38.420Z,170
2017-08-10T06:37:38.377Z,180
2017-08-10T06:38:38.051Z,185
2017-08-10T06:39:38.642Z,200
2017-08-10T06:40:38.321Z,210
2017-08-10T06:41:38.298Z,215
2017-08-10T06:42:38.270Z,215
2017-08-10T06:43:38.254Z,200
2017-08-10T06:44:38.228Z,180
2017-08-10T06:45:38.214Z,165
2017-08-10T06:46:38.184Z,150
2017-08-10T06:47:38.181Z,140
2017-08-10T06:48:38.173Z,125
2017-08-10T06:49:38.180Z,115
2017-08-10T06:50:38.110Z,105
2017-08-10T06:51:38.144Z,100
2017-08-10T06:52:38.075Z,95
2017-08-10T06:53:38.063Z,95
2017-08-10T06:54:37.726Z,95
2017-08-10T06:55:38.010Z,95
2017-08-10T06:56:37.998Z,90
2017-08-10T06:57:38.236Z,90
2017-08-10T06:58:37.646Z,85
2017-08-10T06:59:37.943Z,85
2017-08-10T07:00:37.913Z,85
2017-08-10T07:01:37.897Z,90
2017-08-10T07:02:37.873Z,90
2017-08-10T07:03:37.906Z,90
2017-08-10T07:04:37.824Z,90
2017-08-10T07:05:37.800Z,80
2017-08-10T07:06:37.496Z,75
2017-08-10T07:07:37.774Z,70
2017-08-10T07:08:37.746Z,70
2017-08-10T07:09:37.730Z,70
2017-08-10T07:10:37.418Z,70
2017-08-10T07:11:37.694Z,70
2017-08-10T07:12:37.664Z,75
2017-08-10T07:13:37.654Z,75
2017-08-10T07:14:37.926Z,80
2017-08-10T07:15:37.618Z,85
2017-08-10T07:16:37.585Z,90
2017-08-10T07:17:37.592Z,100
2017-08-10T07:18:37.649Z,110
2017-08-10T07:19:37.228Z,120
2017-08-10T07:20:37.506Z,130
2017-08-10T07:21:37.487Z,135
2017-08-10T07:22:37.468Z,140
2017-08-10T07:23:37.439Z,140
2017-08-10T07:24:37.676Z,140
2017-08-10T07:25:37.411Z,135
2017-08-10T07:26:37.084Z,135
2017-08-10T07:27:37.060Z,130
2017-08-10T07:28:37.339Z,125
2017-08-10T07:29:37.420Z,120
2017-08-10T07:30:37.306Z,115
2017-08-10T07:31:37.273Z,110
2017-08-10T07:32:37.262Z,105
2017-08-10T07:33:37.233Z,105
2017-08-10T07:34:37.222Z,105
2017-08-10T07:35:37.294Z,110
2017-08-10T07:36:37.177Z,120
2017-08-10T07:37:37.191Z,130
2017-08-10T07:38:37.137Z,135
2017-08-10T07:39:37.180Z,140
2017-08-10T07:40:37.097Z,135
2017-08-10T07:41:36.777Z,135
2017-08-10T07:42:37.054Z,140
2017-08-10T07:43:37.035Z,140
2017-08-10T07:44:37.016Z,140
2017-08-10T07:45:36.990Z,135
2017-08-10T07:46:36.976Z,125
2017-08-10T07:47:36.955Z,115
2017-08-10T07:48:36.934Z,110
2017-08-10T07:49:36.928Z,105
2017-08-10T07:50:36.888Z,105
2017-08-10T07:51:36.865Z,110
2017-08-10T07:52:36.853Z,115
2017-08-10T07:53:36.243Z,115
2017-08-10T07:54:36.831Z,120
2017-08-10T07:55:36.798Z,130
2017-08-10T07:56:36.474Z,130
2017-08-10T07:57:36.761Z,135
2017-08-10T07:58:36.743Z,140
2017-08-10T07:59:36.397Z,145
2017-08-10T08:00:36.698Z,145
2017-08-10T08:01:36.371Z,150
2017-08-10T08:02:36.643Z,150
2017-08-10T08:03:36.637Z,155
2017-08-10T08:04:36.613Z,160
2017-08-10T08:05:36.605Z,165
2017-08-10T08:06:36.605Z,165
2017-08-10T08:07:36.546Z,165
2017-08-10T08:08:36.536Z,160
2017-08-10T08:09:36.505Z,160
2017-08-10T08:10:36.498Z,165
2017-08-10T08:11:36.465Z,170
2017-08-10T08:12:36.452Z,175
2017-08-10T08:13:36.432Z,175
2017-08-10T08:14:36.465Z,175
2017-08-10T08:15:36.388Z,180
2017-08-10T08:16:36.365Z,180
2017-08-10T08:17:36.037Z,185
2017-08-10T08:18:36.380Z,185
2017-08-10T08:19:36.319Z,190
2017-08-10T08:20:35.987Z,200
2017-08-10T08:21:35.971Z,210
2017-08-10T08:22:36.243Z,225
2017-08-10T08:23:35.628Z,245
2017-08-10T08:24:36.213Z,265
2017-08-10T08:25:36.192Z,305
2017-08-10T08:26:36.156Z,345
2017-08-10T08:27:36.153Z,375
2017-08-10T08:28:36.138Z,385
2017-08-10T08:29:35.825Z,380
2017-08-10T08:30:35.799Z,370
2017-08-10T08:31:36.121Z,365
2017-08-10T08:32:36.060Z,375
2017-08-10T08:33:36.018Z,395
2017-08-10T08:34:35.710Z,400
2017-08-10T08:35:35.987Z,405
2017-08-10T08:36:35.976Z,400
2017-08-10T08:37:35.651Z,400
2017-08-10T08:38:35.924Z,390
2017-08-10T08:39:35.913Z,375
2017-08-10T08:40:35.890Z,360
2017-08-10T08:41:35.916Z,345
2017-08-10T08:42:35.903Z,335
2017-08-10T08:43:35.242Z,325
2017-08-10T08:44:35.805Z,320
2017-08-10T08:45:35.539Z,320
2017-08-10T08:46:35.788Z,315
2017-08-10T08:47:35.754Z,310
2017-08-10T08:48:35.738Z,305
2017-08-10T08:49:35.718Z,305
2017-08-10T08:50:35.689Z,305
2017-08-10T08:51:35.690Z,310
2017-08-10T08:52:35.644Z,315
2017-08-10T08:53:35.632Z,325
2017-08-10T08:54:35.622Z,340
2017-08-10T08:55:35.596Z,360
2017-08-10T08:56:35.692Z,375
2017-08-10T08:57:35.564Z,400
2017-08-10T08:58:35.594Z,425
2017-08-10T08:59:35.525Z,460
2017-08-10T09:00:35.509Z,495
2017-08-10T09:01:35.480Z,525
2017-08-10T09:02:35.475Z,560
2017-08-10T09:03:35.149Z,575
2017-08-10T09:04:35.485Z,595
2017-08-10T09:05:35.425Z,615
2017-08-10T09:06:35.086Z,635
2017-08-10T09:07:35.382Z,640
2017-08-10T09:08:35.391Z,650
2017-08-10T09:09:35.328Z,665
2017-08-10T09:10:35.331Z,695
2017-08-10T09:11:35.370Z,720
2017-08-10T09:12:35.315Z,785
2017-08-10T09:13:35.266Z,1000
2017-08-10T09:14:35.250Z,1185
2017-08-10T09:15:35.232Z,1310
2017-08-10T09:16:34.962Z,1605
2017-08-10T09:17:35.246Z,1205
2017-08-10T09:18:34.591Z,1075
2017-08-10T09:19:35.178Z,840
2017-08-10T09:20:35.141Z,830
2017-08-10T09:21:35.128Z,880
2017-08-10T09:22:35.172Z,995
2017-08-10T09:24:35.082Z,1880
2017-08-10T09:25:35.161Z,1590
2017-08-10T09:26:35.075Z,1375
2017-08-10T09:27:34.380Z,975
2017-08-10T09:28:35.022Z,980
2017-08-10T09:29:35.011Z,1280
2017-08-10T09:30:34.699Z,1010
2017-08-10T09:31:35.073Z,1085
2017-08-10T09:32:34.953Z,940
2017-08-10T09:33:34.991Z,1005
2017-08-10T09:34:34.941Z,780
2017-08-10T09:35:34.960Z,755
2017-08-10T09:36:34.609Z,735
2017-08-10T09:37:34.891Z,720
2017-08-10T09:38:34.880Z,720
2017-08-10T09:39:34.903Z,700
2017-08-10T09:40:34.845Z,670
2017-08-10T09:41:34.523Z,645
2017-08-10T09:42:34.558Z,635
2017-08-10T09:43:34.792Z,630
2017-08-10T09:44:34.780Z,640
2017-08-10T09:45:34.768Z,660
2017-08-10T09:46:34.749Z,720
2017-08-10T09:47:34.742Z,850
2017-08-10T09:48:34.717Z,1175
2017-08-10T09:49:34.763Z,850
2017-08-10T09:50:34.741Z,855
2017-08-10T09:51:34.676Z,795
2017-08-10T09:52:34.684Z,750
2017-08-10T09:53:34.642Z,710
2017-08-10T09:54:34.611Z,705
2017-08-10T09:55:34.654Z,720
2017-08-10T09:56:34.593Z,755
2017-08-10T09:57:34.622Z,1255
2017-08-10T09:58:34.560Z,1715
2017-08-10T09:59:34.546Z,1650
2017-08-10T10:00:33.932Z,1175
2017-08-10T10:01:34.221Z,1230
2017-08-10T10:02:34.507Z,820
2017-08-10T10:03:34.492Z,845
2017-08-10T10:04:34.483Z,1005
2017-08-10T10:05:34.464Z,1645
2017-08-10T10:06:34.434Z,1880
2017-08-10T10:07:34.127Z,1905
2017-08-10T10:08:34.122Z,1865
2017-08-10T10:09:34.393Z,1935
2017-08-10T10:10:34.394Z,1150
2017-08-10T10:11:34.383Z,1600
2017-08-10T10:12:34.412Z,700
2017-08-10T10:13:34.346Z,585
2017-08-10T10:14:34.037Z,535
2017-08-10T10:15:34.315Z,510
2017-08-10T10:16:34.308Z,490
2017-08-10T10:17:34.313Z,475
2017-08-10T10:18:34.278Z,485
2017-08-10T10:19:34.313Z,505
2017-08-10T10:20:33.962Z,505
2017-08-10T10:21:34.499Z,565
2017-08-10T10:22:34.223Z,615
2017-08-10T10:23:34.214Z,675
2017-08-10T10:24:34.195Z,770
2017-08-10T10:25:34.187Z,775
2017-08-10T10:26:33.873Z,820
2017-08-10T10:27:33.905Z,820
2017-08-10T10:28:34.184Z,835
2017-08-10T10:29:34.105Z,860
2017-08-10T10:30:34.125Z,920
2017-08-10T10:31:34.088Z,970
2017-08-10T10:32:34.113Z,1005
2017-08-10T10:33:33.756Z,980
2017-08-10T10:34:34.057Z,880
2017-08-10T10:35:33.733Z,845
2017-08-10T10:36:34.055Z,970
2017-08-10T10:37:34.065Z,1470
2017-08-10T10:38:33.372Z,1175
2017-08-10T10:39:34.215Z,1405
2017-08-10T10:40:33.948Z,970
2017-08-10T10:41:33.938Z,865
2017-08-10T10:42:33.910Z,760
2017-08-10T10:43:33.903Z,685
2017-08-10T10:44:33.880Z,665
2017-08-10T10:45:33.867Z,665
2017-08-10T10:46:33.858Z,675
2017-08-10T10:47:33.854Z,670
2017-08-10T10:48:33.826Z,650
2017-08-10T10:49:33.813Z,620
2017-08-10T10:50:33.805Z,575
2017-08-10T10:51:33.776Z,560
2017-08-10T10:52:33.777Z,555
2017-08-10T10:53:33.987Z,590
2017-08-10T10:54:33.750Z,625
2017-08-10T10:55:33.758Z,590
2017-08-10T10:56:33.704Z,545
2017-08-10T10:57:33.703Z,510
2017-08-10T10:58:33.679Z,470
2017-08-10T10:59:33.660Z,425
2017-08-10T11:00:33.686Z,375
2017-08-10T11:01:33.642Z,360
2017-08-10T11:02:33.609Z,340
2017-08-10T11:03:33.605Z,350
2017-08-10T11:04:33.579Z,365
2017-08-10T11:05:33.610Z,395
2017-08-10T11:06:33.590Z,400
2017-08-10T11:07:33.255Z,390
2017-08-10T11:08:33.506Z,370
2017-08-10T11:09:33.495Z,345
2017-08-10T11:10:33.476Z,335
2017-08-10T11:11:33.471Z,335
2017-08-10T11:12:33.454Z,340
2017-08-10T11:13:33.433Z,360
2017-08-10T11:14:33.418Z,375
2017-08-10T11:15:33.717Z,365
2017-08-10T11:16:33.376Z,345
2017-08-10T11:17:33.374Z,315
2017-08-10T11:18:33.367Z,305
2017-08-10T11:19:33.330Z,340
2017-08-10T11:20:33.317Z,395
2017-08-10T11:21:47.915Z,405
2017-08-10T11:22:33.282Z,385
2017-08-10T11:23:33.256Z,370
2017-08-10T11:24:33.456Z,380
2017-08-10T11:25:33.234Z,405
2017-08-10T11:26:33.211Z,425
2017-08-10T11:27:33.186Z,440
2017-08-10T11:28:33.189Z,450
2017-08-10T11:29:33.152Z,465
2017-08-10T11:30:32.843Z,475
2017-08-10T11:31:33.168Z,505
2017-08-10T11:32:33.099Z,555
2017-08-10T11:33:33.092Z,625
2017-08-10T11:34:33.084Z,650
2017-08-10T11:35:33.103Z,655
2017-08-10T11:36:33.030Z,655
2017-08-10T11:37:32.768Z,660
2017-08-10T11:38:32.704Z,705
2017-08-10T11:39:33.039Z,750
2017-08-10T11:40:32.958Z,740
2017-08-10T11:41:32.969Z,705
2017-08-10T11:42:32.954Z,655
2017-08-10T11:43:32.919Z,595
2017-08-10T11:44:32.811Z,540
2017-08-10T11:45:32.888Z,500
2017-08-10T11:46:32.767Z,500
2017-08-10T11:47:32.862Z,495
2017-08-10T11:48:32.845Z,500
2017-08-10T11:49:32.819Z,505
2017-08-10T11:50:32.819Z,510
2017-08-10T11:51:32.829Z,505
2017-08-10T11:52:32.784Z,510
2017-08-10T11:53:32.449Z,510
2017-08-10T11:54:32.740Z,525
2017-08-10T11:55:32.735Z,535
2017-08-10T11:56:32.398Z,555
2017-08-10T11:57:32.692Z,570
2017-08-10T11:58:32.719Z,565
2017-08-10T11:59:32.683Z,555
2017-08-10T12:00:32.347Z,550
2017-08-10T12:01:32.619Z,545
2017-08-10T12:02:32.314Z,560
2017-08-10T12:03:32.636Z,580
2017-08-10T12:04:32.567Z,585
2017-08-10T12:05:32.259Z,565
2017-08-10T12:06:32.539Z,500
2017-08-10T12:07:32.222Z,520
2017-08-10T12:08:32.500Z,560
2017-08-10T12:09:32.537Z,560
2017-08-10T12:10:32.509Z,545
2017-08-10T12:11:32.225Z,540
2017-08-10T12:12:32.432Z,515
2017-08-10T12:13:32.416Z,510
2017-08-10T12:14:32.413Z,510
2017-08-10T12:15:32.378Z,525
2017-08-10T12:16:32.385Z,545
2017-08-10T12:17:32.055Z,555
2017-08-10T12:18:32.538Z,585
2017-08-10T12:19:32.310Z,610
2017-08-10T12:20:32.306Z,595
2017-08-10T12:21:31.983Z,570
2017-08-10T12:22:32.263Z,545
2017-08-10T12:23:31.953Z,550
2017-08-10T12:24:32.231Z,615
2017-08-10T12:25:32.214Z,660
2017-08-10T12:26:32.202Z,660
2017-08-10T12:27:32.191Z,620
2017-08-10T12:28:32.171Z,565
2017-08-10T12:29:32.237Z,525
2017-08-10T12:30:32.177Z,505
2017-08-10T12:32:31.704Z,470
2017-08-10T12:33:32.080Z,465
2017-08-10T12:34:32.069Z,465
2017-08-10T12:35:32.052Z,460
2017-08-10T12:36:31.742Z,435
2017-08-10T12:37:32.021Z,400
2017-08-10T12:38:31.712Z,375
2017-08-10T12:39:31.681Z,370
2017-08-10T12:40:31.973Z,385
2017-08-10T12:41:31.966Z,415
2017-08-10T12:42:31.938Z,460
2017-08-10T12:43:31.914Z,510
2017-08-10T12:44:31.910Z,570
2017-08-10T12:45:31.883Z,630
2017-08-10T12:46:31.573Z,660
2017-08-10T12:47:31.865Z,665
2017-08-10T12:48:31.534Z,675
2017-08-10T12:49:31.820Z,705
2017-08-10T12:50:31.810Z,730
2017-08-10T12:51:31.789Z,685
2017-08-10T12:52:31.820Z,605
2017-08-10T12:53:32.032Z,585
2017-08-10T12:54:31.748Z,595
2017-08-10T12:55:31.739Z,555
2017-08-10T12:56:31.701Z,520
2017-08-10T12:57:31.687Z,465
2017-08-10T12:58:31.678Z,440
2017-08-10T12:59:31.365Z,450
2017-08-10T13:00:31.658Z,480
2017-08-10T13:01:31.324Z,490
2017-08-10T13:02:31.657Z,500
2017-08-10T13:03:31.806Z,485
2017-08-10T13:04:31.788Z,455
2017-08-10T13:05:31.555Z,400
2017-08-10T13:06:31.534Z,360
2017-08-10T13:07:31.219Z,330
2017-08-10T13:08:31.512Z,325
2017-08-10T13:09:31.482Z,335
2017-08-10T13:10:31.469Z,340
2017-08-10T13:11:31.452Z,315
2017-08-10T13:12:31.435Z,300
2017-08-10T13:13:31.428Z,310
2017-08-10T13:14:31.105Z,330
2017-08-10T13:15:31.400Z,355
2017-08-10T13:16:31.370Z,385
2017-08-10T13:17:31.363Z,420
2017-08-10T13:18:31.388Z,430
2017-08-10T13:19:31.324Z,435
2017-08-10T13:20:31.305Z,450
2017-08-10T13:21:31.283Z,465
2017-08-10T13:22:31.263Z,470
2017-08-10T13:23:31.262Z,470
2017-08-10T13:24:31.235Z,465
2017-08-10T13:25:31.223Z,455
2017-08-10T13:26:31.217Z,440
2017-08-10T13:27:31.198Z,425
2017-08-10T13:28:31.161Z,405
2017-08-10T13:29:31.145Z,380
2017-08-10T13:30:31.137Z,365
2017-08-10T13:31:31.117Z,350
2017-08-10T13:32:30.786Z,345
2017-08-10T13:33:31.083Z,340
2017-08-10T13:34:31.058Z,335
2017-08-10T13:35:45.663Z,345
2017-08-10T13:36:30.725Z,345
2017-08-10T13:37:30.772Z,365
2017-08-10T13:38:31.015Z,380
2017-08-10T13:39:30.983Z,375
2017-08-10T13:40:31.211Z,340
2017-08-10T13:41:30.639Z,300
2017-08-10T13:42:30.928Z,260
2017-08-10T13:43:30.908Z,240
2017-08-10T13:44:30.892Z,240
2017-08-10T13:45:30.863Z,245
2017-08-10T13:46:30.858Z,250
2017-08-10T13:47:31.104Z,250
2017-08-10T13:48:30.525Z,245
2017-08-10T13:49:30.511Z,235
2017-08-10T13:50:30.802Z,230
2017-08-10T13:51:30.775Z,225
2017-08-10T13:52:30.750Z,230
2017-08-10T13:53:30.749Z,225
2017-08-10T13:54:30.736Z,235
2017-08-10T13:55:30.404Z,240
2017-08-10T13:56:30.687Z,255
2017-08-10T13:57:30.368Z,280
2017-08-10T13:58:30.651Z,295
2017-08-10T13:59:30.642Z,310
2017-08-10T14:00:30.869Z,325
2017-08-10T14:01:30.598Z,320
2017-08-10T14:02:30.580Z,325
2017-08-10T14:03:30.265Z,330
2017-08-10T14:04:30.532Z,320
2017-08-10T14:05:30.526Z,325
2017-08-10T14:06:30.517Z,330
2017-08-10T14:07:30.189Z,330
2017-08-10T14:08:30.495Z,325